createdAt,value
2018-09-04T00:02:21.759Z,77.79
2018-09-04T00:04:50.736Z,77.34
2018-09-04T00:07:21.430Z,79.19
2018-09-04T00:09:50.888Z,78.12
2018-09-04T00:12:20.155Z,79.52
2018-09-04T00:14:49.245Z,79.02
2018-09-04T00:17:18.504Z,78.60
2018-09-04T00:19:47.594Z,78.53
2018-09-04T00:22:16.514Z,78.92
2018-09-04T00:24:45.461Z,78.27
2018-09-04T00:27:14.441Z,79.08
2018-09-04T00:29:43.321Z,79.58
2018-09-04T00:32:12.279Z,78.53
2018-09-04T00:34:41.256Z,78.56
2018-09-04T00:37:10.365Z,79.48
2018-09-04T00:39:39.371Z,80.40
2018-09-04T00:42:08.741Z,79.31
2018-09-04T00:44:37.730Z,78.10
2018-09-04T00:47:06.641Z,80.79
2018-09-04T00:49:35.647Z,80.82
2018-09-04T00:52:04.726Z,80.17
2018-09-04T00:54:33.724Z,80.12
2018-09-04T00:57:02.705Z,80.10
2018-09-04T00:59:31.675Z,80.70
2018-09-04T01:02:00.708Z,79.76
2018-09-04T01:04:29.714Z,80.30
2018-09-04T01:06:58.848Z,81.24
2018-09-04T01:09:27.936Z,81.79
2018-09-04T01:11:56.953Z,80.44
2018-09-04T01:14:25.978Z,81.21
2018-09-04T01:16:54.922Z,80.35
2018-09-04T01:19:23.962Z,80.70
2018-09-04T01:21:52.941Z,81.33
2018-09-04T01:24:21.937Z,81.12
2018-09-04T01:26:50.927Z,79.98
2018-09-04T01:29:20.007Z,80.85
2018-09-04T01:31:48.971Z,82.24
2018-09-04T01:34:18.016Z,81.67
2018-09-04T01:36:47.116Z,82.34
2018-09-04T01:39:16.047Z,81.70
2018-09-04T01:41:45.010Z,81.51
2018-09-04T01:44:14.005Z,81.64
2018-09-04T01:46:43.194Z,82.30
2018-09-04T01:49:12.654Z,81.25
2018-09-04T01:51:41.617Z,82.07
2018-09-04T01:54:10.638Z,81.73
2018-09-04T01:56:39.661Z,81.54
2018-09-04T01:59:08.576Z,83.23
2018-09-04T02:01:37.573Z,82.27
2018-09-04T02:04:06.747Z,83.52
2018-09-04T02:06:35.751Z,81.91
2018-09-04T02:09:05.721Z,82.10
2018-09-04T02:11:34.622Z,82.51
2018-09-04T02:14:03.936Z,81.96
2018-09-04T02:16:32.863Z,82.43
2018-09-04T02:19:01.833Z,81.53
2018-09-04T02:21:30.877Z,82.80
2018-09-04T02:23:59.853Z,82.71
2018-09-04T02:26:29.328Z,83.28
2018-09-04T02:28:58.276Z,82.74
2018-09-04T02:31:27.315Z,83.35
2018-09-04T02:33:56.252Z,83.48
2018-09-04T02:36:25.208Z,83.37
2018-09-04T02:38:54.113Z,83.55
2018-09-04T02:41:23.117Z,84.20
2018-09-04T02:43:52.026Z,84.97
2018-09-04T02:46:21.029Z,85.70
2018-09-04T02:48:50.072Z,85.84
2018-09-04T02:51:19.301Z,85.62
2018-09-04T02:53:48.230Z,84.98
2018-09-04T02:56:17.144Z,85.07
2018-09-04T02:58:46.128Z,85.54
2018-09-04T03:01:15.280Z,83.95
2018-09-04T03:03:44.367Z,85.27
2018-09-04T03:06:13.358Z,86.07
2018-09-04T03:08:42.323Z,87.28
2018-09-04T03:11:11.581Z,87.12
2018-09-04T03:13:40.574Z,86.85
2018-09-04T03:16:09.512Z,86.49
2018-09-04T03:18:38.488Z,86.85
2018-09-04T03:21:07.449Z,86.98
2018-09-04T03:23:36.432Z,87.58
2018-09-04T03:26:05.367Z,87.07
2018-09-04T03:28:34.384Z,86.87
2018-09-04T03:31:03.443Z,86.60
2018-09-04T03:33:34.287Z,86.85
2018-09-04T03:36:03.245Z,87.77
2018-09-04T03:38:32.161Z,87.67
2018-09-04T03:41:01.232Z,88.00
2018-09-04T03:43:30.207Z,88.30
2018-09-04T03:45:59.121Z,87.76
2018-09-04T03:48:28.101Z,88.41
2018-09-04T03:50:56.999Z,87.76
2018-09-04T03:53:25.978Z,88.54
2018-09-04T03:55:54.938Z,88.01
2018-09-04T03:58:23.886Z,88.00
2018-09-04T04:00:52.869Z,87.65
2018-09-04T04:09:17.088Z,89.23
2018-09-04T04:11:46.067Z,88.97
2018-09-04T04:14:14.990Z,89.78
2018-09-04T04:16:43.967Z,89.61
2018-09-04T04:19:12.901Z,88.97
2018-09-04T04:21:42.007Z,89.31
2018-09-04T04:24:11.187Z,87.96
2018-09-04T04:26:40.091Z,89.31
2018-09-04T04:29:08.993Z,88.31
2018-09-04T04:31:38.082Z,88.54
2018-09-04T04:34:07.163Z,88.48
2018-09-04T04:36:37.145Z,87.41
2018-09-04T04:39:08.080Z,88.17
2018-09-04T04:41:37.043Z,87.98
2018-09-04T04:44:06.104Z,86.88
2018-09-04T04:46:35.189Z,87.54
2018-09-04T04:49:04.250Z,88.10
2018-09-04T04:51:33.166Z,88.41
2018-09-04T04:54:02.228Z,88.29
2018-09-04T04:56:31.219Z,88.77
2018-09-04T04:59:00.160Z,87.55
2018-09-04T05:01:29.108Z,88.84
2018-09-04T05:04:02.069Z,88.43
2018-09-04T05:06:31.020Z,88.67
2018-09-04T05:09:00.253Z,88.83
2018-09-04T05:11:29.216Z,89.05
2018-09-04T05:13:58.146Z,89.01
2018-09-04T05:16:27.099Z,88.22
2018-09-04T05:18:56.009Z,88.76
2018-09-04T05:21:24.992Z,89.03
2018-09-04T05:23:53.892Z,88.83
2018-09-04T05:26:22.800Z,88.58
2018-09-04T05:28:51.762Z,89.21
2018-09-04T05:31:20.722Z,89.08
2018-09-04T05:33:49.704Z,89.05
2018-09-04T05:36:18.660Z,89.12
2018-09-04T05:38:47.637Z,89.66
2018-09-04T05:41:16.582Z,88.71
2018-09-04T05:43:48.436Z,88.49
2018-09-04T05:46:22.053Z,89.77
2018-09-04T05:48:51.000Z,87.71
2018-09-04T05:51:19.926Z,88.45
2018-09-04T05:53:48.897Z,87.69
2018-09-04T05:56:17.859Z,88.53
2018-09-04T05:58:46.807Z,87.84
2018-09-04T06:01:16.950Z,88.33
2018-09-04T06:03:45.965Z,87.88
2018-09-04T06:06:15.181Z,89.94
2018-09-04T06:08:44.084Z,89.34
2018-09-04T06:11:13.040Z,89.29
2018-09-04T06:13:41.993Z,88.20
2018-09-04T06:16:11.250Z,87.97
2018-09-04T06:18:40.188Z,88.16
2018-09-04T06:21:09.102Z,88.65
2018-09-04T06:23:38.061Z,88.94
2018-09-04T06:26:06.999Z,89.05
2018-09-04T06:28:36.254Z,89.32
2018-09-04T06:31:05.289Z,88.47
2018-09-04T06:33:34.205Z,88.96
2018-09-04T06:36:03.163Z,89.07
2018-09-04T06:38:32.255Z,87.92
2018-09-04T06:41:01.170Z,88.97
2018-09-04T06:43:30.115Z,88.50
2018-09-04T06:45:59.411Z,88.60
2018-09-04T06:48:28.325Z,88.32
2018-09-04T06:50:57.290Z,88.97
2018-09-04T06:53:26.318Z,87.66
2018-09-04T06:55:55.227Z,88.65
2018-09-04T06:58:24.151Z,89.87
2018-09-04T07:00:53.331Z,88.87
2018-09-04T07:03:22.280Z,89.49
2018-09-04T07:05:51.411Z,89.48
2018-09-04T07:08:20.457Z,88.66
2018-09-04T07:10:49.389Z,90.13
2018-09-04T07:13:18.339Z,89.09
2018-09-04T07:15:47.245Z,88.92
2018-09-04T07:18:16.535Z,90.27
2018-09-04T07:20:45.444Z,89.45
2018-09-04T07:23:14.398Z,88.99
2018-09-04T07:25:43.364Z,88.43
2018-09-04T07:28:12.266Z,89.03
2018-09-04T07:30:41.224Z,89.29
2018-09-04T07:33:10.405Z,88.88
2018-09-04T07:35:39.648Z,89.17
2018-09-04T07:38:08.646Z,88.58
2018-09-04T07:40:37.559Z,87.49
2018-09-04T07:43:06.531Z,87.86
2018-09-04T07:45:35.449Z,87.05
2018-09-04T07:48:04.756Z,87.45
2018-09-04T07:50:33.720Z,88.01
2018-09-04T07:53:02.690Z,87.70
2018-09-04T07:55:31.693Z,87.04
2018-09-04T07:58:00.613Z,87.76
2018-09-04T08:00:30.203Z,88.46
2018-09-04T08:02:59.127Z,88.92
2018-09-04T08:05:28.080Z,88.17
2018-09-04T08:07:57.031Z,88.66
2018-09-04T08:10:25.964Z,88.52
2018-09-04T08:12:54.971Z,87.64
2018-09-04T08:15:23.896Z,87.33
2018-09-04T08:17:52.815Z,86.76
2018-09-04T08:20:22.165Z,87.84
2018-09-04T08:22:53.203Z,87.29
2018-09-04T08:25:22.531Z,87.55
2018-09-04T08:27:51.532Z,87.84
2018-09-04T08:30:20.468Z,87.22
2018-09-04T08:32:49.622Z,87.40
2018-09-04T08:35:18.631Z,87.03
2018-09-04T08:37:47.736Z,88.10
2018-09-04T08:40:16.690Z,87.57
2018-09-04T08:42:45.666Z,87.20
2018-09-04T08:45:14.713Z,87.46
2018-09-04T08:47:43.662Z,88.02
2018-09-04T08:50:12.577Z,87.37
2018-09-04T08:52:41.551Z,87.31
2018-09-04T08:55:10.527Z,87.01
2018-09-04T08:57:39.774Z,87.55
2018-09-04T09:00:08.707Z,87.06
2018-09-04T09:02:37.700Z,87.60
2018-09-04T09:05:06.740Z,87.21
2018-09-04T09:07:35.751Z,87.23
2018-09-04T09:10:04.761Z,86.03
2018-09-04T09:12:33.654Z,86.20
2018-09-04T09:15:02.629Z,86.21
2018-09-04T09:17:31.588Z,86.57
2018-09-04T09:20:00.545Z,86.16
2018-09-04T09:22:29.526Z,85.83
2018-09-04T09:24:58.442Z,85.39
2018-09-04T09:27:27.408Z,85.42
2018-09-04T09:29:56.361Z,85.74
2018-09-04T09:32:25.263Z,84.96
2018-09-04T09:34:54.194Z,85.22
2018-09-04T09:37:23.264Z,83.78
2018-09-04T09:39:52.269Z,83.38
2018-09-04T09:42:21.263Z,84.47
2018-09-04T09:44:50.499Z,84.82
2018-09-04T09:47:19.411Z,84.27
2018-09-04T09:49:48.325Z,84.45
2018-09-04T09:52:17.319Z,83.74
2018-09-04T10:00:41.822Z,82.77
2018-09-04T10:03:16.168Z,83.80
2018-09-04T10:05:45.112Z,82.78
2018-09-04T10:08:14.073Z,83.38
2018-09-04T10:10:43.039Z,83.26
2018-09-04T10:13:11.969Z,82.73
2018-09-04T10:15:41.012Z,82.69
2018-09-04T10:18:09.915Z,82.37
2018-09-04T10:20:38.879Z,81.41
2018-09-04T10:23:07.904Z,83.23
2018-09-04T10:25:36.839Z,82.43
2018-09-04T10:28:05.800Z,83.55
2018-09-04T10:30:34.904Z,83.54
2018-09-04T10:33:03.935Z,82.82
2018-09-04T10:35:32.935Z,82.91
2018-09-04T10:38:02.278Z,82.38
2018-09-04T10:40:36.531Z,81.81
2018-09-04T10:43:05.435Z,82.00
2018-09-04T10:45:39.680Z,81.14
2018-09-04T10:48:12.797Z,81.03
2018-09-04T10:50:41.991Z,81.38
2018-09-04T10:53:10.905Z,81.37
2018-09-04T10:55:39.821Z,81.51
2018-09-04T10:58:09.120Z,81.02
2018-09-04T11:00:38.399Z,79.92
2018-09-04T11:03:07.312Z,80.08
2018-09-04T11:05:36.304Z,81.47
2018-09-04T11:08:05.241Z,80.40
2018-09-04T11:10:34.190Z,80.70
2018-09-04T11:13:03.172Z,79.96
2018-09-04T11:15:32.133Z,80.06
2018-09-04T11:18:01.166Z,79.42
2018-09-04T11:20:30.491Z,80.13
2018-09-04T11:22:59.506Z,80.18
2018-09-04T11:25:28.490Z,79.50
2018-09-04T11:27:57.444Z,79.92
2018-09-04T11:30:26.430Z,79.97
2018-09-04T11:32:55.426Z,78.92
2018-09-04T11:35:24.402Z,79.26
2018-09-04T11:37:53.328Z,79.48
2018-09-04T11:40:22.294Z,78.90
2018-09-04T11:42:51.299Z,78.91
2018-09-04T11:45:20.240Z,78.30
2018-09-04T11:47:49.329Z,79.11
2018-09-04T11:50:18.302Z,78.25
2018-09-04T11:52:47.536Z,78.43
2018-09-04T11:55:16.500Z,78.64
2018-09-04T11:57:46.056Z,78.14
2018-09-04T12:00:22.388Z,77.73
2018-09-04T12:02:51.348Z,78.54
2018-09-04T12:05:20.362Z,77.95
2018-09-04T12:07:49.476Z,78.13
2018-09-04T12:10:18.445Z,77.21
2018-09-04T12:12:47.600Z,76.68
2018-09-04T12:15:16.539Z,76.84
2018-09-04T12:17:45.503Z,77.87
2018-09-04T12:20:49.987Z,77.00
2018-09-04T12:23:18.882Z,77.41
2018-09-04T12:25:49.272Z,77.21
2018-09-04T12:30:46.541Z,77.17
2018-09-04T12:33:15.759Z,76.12
2018-09-04T12:35:44.734Z,75.85
2018-09-04T12:38:16.110Z,75.36
2018-09-04T12:40:45.794Z,75.47
2018-09-04T12:43:14.721Z,74.75
2018-09-04T12:45:50.829Z,75.09
2018-09-04T12:48:25.398Z,75.14
2018-09-04T12:50:55.423Z,73.92
2018-09-04T12:53:24.925Z,74.95
2018-09-04T12:55:53.974Z,73.82
2018-09-04T12:58:22.865Z,73.85
2018-09-04T13:00:53.026Z,74.06
2018-09-04T13:03:23.323Z,73.03
2018-09-04T13:05:59.018Z,73.21
2018-09-04T13:08:29.452Z,72.45
2018-09-04T13:10:58.371Z,71.38
2018-09-04T13:13:27.331Z,70.96
2018-09-04T13:15:57.836Z,69.97
2018-09-04T13:18:27.681Z,69.27
2018-09-04T13:21:01.282Z,66.92
2018-09-04T13:23:31.538Z,67.93
2018-09-04T13:26:00.676Z,67.37
2018-09-04T13:28:30.316Z,66.92
2018-09-04T13:30:59.585Z,66.87
2018-09-04T13:33:28.488Z,67.66
2018-09-04T13:35:57.458Z,67.18
2018-09-04T13:38:26.409Z,67.07
2018-09-04T13:41:00.774Z,67.04
2018-09-04T13:43:29.743Z,65.62
2018-09-04T13:45:58.659Z,65.02
2018-09-04T13:48:29.661Z,66.08
2018-09-04T13:50:58.914Z,62.88
2018-09-04T13:53:28.527Z,63.39
2018-09-04T13:55:58.310Z,62.17
2018-09-04T13:58:27.533Z,61.70
2018-09-04T14:00:56.479Z,61.85
2018-09-04T14:03:25.463Z,61.50
2018-09-04T14:05:54.389Z,62.87
2018-09-04T14:08:23.454Z,61.65
2018-09-04T14:10:52.359Z,62.72
2018-09-04T14:13:21.379Z,62.29
2018-09-04T14:15:51.785Z,61.82
2018-09-04T14:18:20.738Z,61.72
2018-09-04T14:20:49.711Z,59.79
2018-09-04T14:23:18.670Z,59.83
2018-09-04T14:25:47.897Z,59.45
2018-09-04T14:28:40.969Z,58.74
2018-09-04T14:30:45.912Z,58.12
2018-09-04T14:33:14.795Z,57.79
2018-09-04T14:35:43.720Z,57.18
2018-09-04T14:38:12.695Z,57.65
2018-09-04T14:40:41.652Z,57.31
2018-09-04T14:43:10.588Z,57.56
2018-09-04T14:45:40.534Z,56.89
2018-09-04T14:48:09.430Z,57.07
2018-09-04T14:50:38.513Z,56.99
2018-09-04T14:53:07.604Z,57.09
2018-09-04T14:55:36.552Z,57.45
2018-09-04T14:58:05.743Z,57.31
2018-09-04T15:00:34.758Z,57.35
2018-09-04T15:03:03.805Z,56.82
2018-09-04T15:05:32.918Z,55.80
2018-09-04T15:08:01.889Z,56.01
2018-09-04T15:10:30.858Z,55.89
2018-09-04T15:12:59.770Z,56.83
2018-09-04T15:15:28.733Z,56.67
2018-09-04T15:17:57.685Z,56.77
2018-09-04T15:20:26.629Z,56.36
2018-09-04T15:22:55.592Z,56.14
2018-09-04T15:25:24.580Z,56.22
2018-09-04T15:27:53.469Z,56.12
2018-09-04T15:30:23.590Z,56.60
2018-09-04T15:32:52.532Z,56.31
2018-09-04T15:35:21.467Z,55.35
2018-09-04T15:37:50.430Z,54.07
2018-09-04T15:40:19.371Z,54.70
2018-09-04T15:42:48.466Z,53.94
2018-09-04T15:45:17.440Z,53.84
2018-09-04T15:47:46.398Z,53.79
2018-09-04T15:50:15.331Z,54.84
2018-09-04T15:52:44.336Z,54.66
2018-09-04T15:55:13.243Z,53.29
2018-09-04T15:57:42.192Z,52.84
2018-09-04T16:00:11.088Z,52.37
2018-09-04T16:02:40.067Z,53.15
2018-09-04T16:05:09.058Z,52.73
2018-09-04T16:07:38.074Z,53.07
2018-09-04T16:10:07.335Z,52.78
2018-09-04T16:12:36.689Z,53.83
2018-09-04T16:15:05.845Z,53.25
2018-09-04T16:17:35.094Z,52.61
2018-09-04T16:20:04.228Z,52.58
2018-09-04T16:22:33.299Z,53.60
2018-09-04T16:25:02.356Z,52.83
2018-09-04T16:27:31.463Z,54.55
2018-09-04T16:30:00.411Z,55.09
2018-09-04T16:32:29.502Z,55.97
2018-09-04T16:34:58.572Z,56.76
2018-09-04T16:37:27.535Z,57.82
2018-09-04T16:39:56.512Z,58.39
2018-09-04T16:42:25.495Z,59.38
2018-09-04T16:44:54.521Z,59.87
2018-09-04T16:47:23.618Z,60.36
2018-09-04T16:49:52.599Z,60.59
2018-09-04T16:52:21.874Z,60.35
2018-09-04T16:54:50.861Z,60.57
2018-09-04T16:57:19.958Z,60.66
2018-09-04T16:59:48.922Z,61.07
2018-09-04T17:02:17.947Z,62.28
2018-09-04T17:04:46.884Z,61.78
2018-09-04T17:07:15.819Z,62.26
2018-09-04T17:09:44.829Z,62.79
2018-09-04T17:12:13.878Z,63.10
2018-09-04T17:14:43.198Z,62.74
2018-09-04T17:17:12.187Z,63.21
2018-09-04T17:19:41.189Z,64.06
2018-09-04T17:22:10.891Z,63.67
2018-09-04T17:24:39.884Z,63.62
2018-09-04T17:27:08.919Z,63.69
2018-09-04T17:29:37.959Z,63.95
2018-09-04T17:32:12.123Z,64.22
2018-09-04T17:34:41.075Z,63.56
2018-09-04T17:37:10.031Z,64.03
2018-09-04T17:39:39.068Z,64.77
2018-09-04T17:42:08.068Z,64.99
2018-09-04T17:44:37.110Z,64.39
2018-09-04T17:47:06.319Z,64.62
2018-09-04T17:49:40.269Z,65.23
2018-09-04T17:52:09.203Z,65.61
2018-09-04T17:54:38.267Z,65.65
2018-09-04T17:57:07.356Z,65.74
2018-09-04T17:59:36.336Z,65.85
2018-09-04T18:02:05.383Z,65.43
2018-09-04T18:04:34.377Z,65.04
2018-09-04T18:07:03.392Z,66.34
2018-09-04T18:09:32.393Z,66.82
2018-09-04T18:12:01.349Z,67.28
2018-09-04T18:14:30.325Z,68.42
2018-09-04T18:16:59.373Z,66.82
2018-09-04T18:19:28.381Z,67.60
2018-09-04T18:21:57.480Z,66.96
2018-09-04T18:24:26.417Z,67.09
2018-09-04T18:26:55.445Z,67.10
2018-09-04T18:29:24.387Z,68.14
2018-09-04T18:31:53.446Z,68.23
2018-09-04T18:34:22.859Z,68.31
2018-09-04T18:36:51.841Z,69.57
2018-09-04T18:39:20.783Z,69.24
2018-09-04T18:41:49.825Z,69.44
2018-09-04T18:44:18.816Z,68.90
2018-09-04T18:46:47.777Z,68.46
2018-09-04T18:49:16.796Z,69.02
2018-09-04T18:51:46.103Z,68.78
2018-09-04T18:54:15.101Z,69.19
2018-09-04T18:56:44.032Z,70.04
2018-09-04T18:59:13.464Z,69.77
2018-09-04T19:01:42.376Z,69.70
2018-09-04T19:04:12.192Z,69.55
2018-09-04T19:06:41.187Z,70.25
2018-09-04T19:09:10.778Z,70.21
2018-09-04T19:11:39.766Z,70.41
2018-09-04T19:14:08.809Z,69.90
2018-09-04T19:16:37.765Z,70.57
2018-09-04T19:19:07.078Z,70.57
2018-09-04T19:21:36.035Z,71.12
2018-09-04T19:24:05.019Z,70.39
2018-09-04T19:26:34.219Z,71.01
2018-09-04T19:29:03.763Z,71.24
2018-09-04T19:31:32.853Z,70.64
2018-09-04T19:34:01.863Z,71.27
2018-09-04T19:36:30.821Z,72.38
2018-09-04T19:39:00.312Z,71.08
2018-09-04T19:41:29.207Z,73.22
2018-09-04T19:43:58.298Z,71.27
2018-09-04T19:46:27.327Z,71.65
2018-09-04T19:48:56.255Z,71.73
2018-09-04T19:51:25.347Z,72.33
2018-09-04T19:53:55.070Z,71.96
2018-09-04T19:56:24.003Z,73.25
2018-09-04T19:58:53.015Z,72.61
2018-09-04T20:01:21.953Z,72.24
2018-09-04T20:03:50.953Z,72.00
2018-09-04T20:06:19.864Z,71.57
2018-09-04T20:08:48.794Z,72.77
2018-09-04T20:11:18.086Z,72.12
2018-09-04T20:13:47.145Z,72.82
2018-09-04T20:16:16.168Z,73.52
2018-09-04T20:18:45.208Z,73.95
2018-09-04T20:21:14.230Z,73.37
2018-09-04T20:23:43.222Z,73.12
2018-09-04T20:26:12.122Z,73.41
2018-09-04T20:28:41.138Z,73.44
2018-09-04T20:31:10.140Z,73.58
2018-09-04T20:33:39.173Z,74.15
2018-09-04T20:36:08.184Z,72.92
2018-09-04T20:38:37.382Z,74.35
2018-09-04T20:41:06.354Z,74.82
2018-09-04T20:43:35.295Z,73.95
2018-09-04T20:46:04.245Z,74.41
2018-09-04T20:48:33.144Z,74.24
2018-09-04T20:51:02.102Z,74.32
2018-09-04T20:53:31.229Z,74.15
2018-09-04T20:56:00.123Z,74.83
2018-09-04T20:58:40.289Z,74.10
2018-09-04T21:01:20.547Z,75.62
2018-09-04T21:04:00.810Z,74.65
2018-09-04T21:06:41.501Z,75.00
2018-09-04T21:09:17.592Z,74.35
2018-09-04T21:11:46.578Z,74.62
2018-09-04T21:14:15.566Z,75.84
2018-09-04T21:16:44.640Z,76.89
2018-09-04T21:19:13.564Z,75.57
2018-09-04T21:21:42.514Z,75.61
2018-09-04T21:24:11.522Z,75.63
2018-09-04T21:26:40.662Z,75.46
2018-09-04T21:29:09.858Z,75.58
2018-09-04T21:31:38.792Z,75.86
2018-09-04T21:34:07.728Z,76.09
2018-09-04T21:36:36.997Z,75.80
2018-09-04T21:39:07.257Z,75.87
2018-09-04T21:41:36.274Z,75.26
2018-09-04T21:44:05.376Z,75.44
2018-09-04T21:46:34.476Z,75.61
2018-09-04T21:49:03.544Z,76.98
2018-09-04T21:51:32.487Z,75.76
2018-09-04T21:54:01.447Z,76.09
2018-09-04T21:56:30.426Z,76.64
2018-09-04T21:58:59.796Z,76.53
2018-09-04T22:01:28.718Z,76.41
2018-09-04T22:03:57.645Z,76.48
2018-09-04T22:06:26.635Z,76.91
2018-09-04T22:08:55.554Z,76.03
2018-09-04T22:11:24.557Z,76.64
2018-09-04T22:13:53.525Z,76.44
2018-09-04T22:16:22.523Z,76.53
2018-09-04T22:18:51.481Z,75.77
2018-09-04T22:21:20.465Z,76.99
2018-09-04T22:23:52.609Z,76.17
2018-09-04T22:26:21.794Z,76.70
2018-09-04T22:28:51.057Z,77.13
2018-09-04T22:31:20.240Z,77.14
2018-09-04T22:34:20.300Z,77.96
2018-09-04T22:36:49.272Z,77.04
2018-09-04T22:39:18.366Z,77.33
2018-09-04T22:41:47.280Z,77.40
2018-09-04T22:44:16.313Z,77.49
2018-09-04T22:46:45.460Z,77.64
2018-09-04T22:49:14.585Z,77.72
2018-09-04T22:51:43.511Z,76.92
2018-09-04T22:54:12.516Z,77.78
2018-09-04T22:56:41.725Z,78.18
2018-09-04T22:59:10.755Z,77.77
2018-09-04T23:01:39.752Z,77.98
2018-09-04T23:04:08.747Z,78.47
2018-09-04T23:06:37.717Z,77.46
2018-09-04T23:09:07.952Z,78.66
2018-09-04T23:11:36.887Z,78.82
2018-09-04T23:14:05.815Z,79.08
2018-09-04T23:16:35.032Z,79.36
2018-09-04T23:19:04.106Z,78.84
2018-09-04T23:21:33.082Z,79.07
2018-09-04T23:24:02.457Z,79.64
2018-09-04T23:26:31.430Z,79.37
2018-09-04T23:29:00.333Z,79.35
2018-09-04T23:31:29.325Z,79.52
2018-09-04T23:33:58.326Z,79.80
2018-09-04T23:36:27.530Z,78.76
2018-09-04T23:38:56.457Z,79.64
2018-09-04T23:41:25.391Z,79.71
2018-09-04T23:43:54.338Z,79.37
2018-09-04T23:46:23.436Z,78.69
2018-09-04T23:48:52.534Z,79.10
2018-09-04T23:51:21.485Z,79.27
2018-09-04T23:53:50.888Z,79.65
2018-09-04T23:56:19.862Z,78.30
2018-09-04T23:58:48.784Z,78.30
